createdAt,value
2022-10-11T00:00:21.289Z,98335.47
2022-10-11T00:02:47.780Z,98342.03
2022-10-11T00:05:16.455Z,98348.66
2022-10-11T00:07:43.377Z,98347.88
2022-10-11T00:10:10.693Z,98343.19
2022-10-11T00:12:37.410Z,98343.97
2022-10-11T00:15:05.634Z,98345.13
2022-10-11T00:17:32.706Z,98343.94
2022-10-11T00:20:01.582Z,98341.22
2022-10-11T00:22:31.884Z,98344.69
2022-10-11T00:24:59.237Z,98343.53
2022-10-11T00:27:25.831Z,98349.34
2022-10-11T00:29:52.388Z,98342.72
2022-10-11T00:32:18.881Z,98346.22
2022-10-11T00:34:47.149Z,98350.03
2022-10-11T00:37:13.825Z,98351.97
2022-10-11T00:39:40.339Z,98350.00
2022-10-11T00:42:12.454Z,98349.19
2022-10-11T00:44:43.467Z,98354.63
2022-10-11T00:47:15.328Z,98347.63
2022-10-11T00:49:43.253Z,98343.31
2022-10-11T00:52:32.279Z,98344.06
2022-10-11T00:55:05.290Z,98342.06
2022-10-11T00:57:36.616Z,98349.84
2022-10-11T01:00:07.604Z,98345.53
2022-10-11T01:02:34.499Z,98353.66
2022-10-11T01:05:27.623Z,98360.59
2022-10-11T01:07:52.445Z,98354.34
2022-10-11T01:10:21.135Z,98362.06
2022-10-11T01:12:56.322Z,98362.81
2022-10-11T01:15:33.581Z,98356.59
2022-10-11T01:18:11.157Z,98356.53
2022-10-11T01:20:50.096Z,98367.41
2022-10-11T01:23:33.653Z,98365.06
2022-10-11T01:26:16.880Z,98361.16
2022-10-11T01:28:52.255Z,98367.28
2022-10-11T01:31:40.195Z,98370.75
2022-10-11T01:34:13.941Z,98366.84
2022-10-11T01:36:51.332Z,98365.66
2022-10-11T01:39:43.473Z,98368.75
2022-10-11T01:42:12.612Z,98368.69
2022-10-11T01:44:44.461Z,98368.69
2022-10-11T01:47:10.974Z,98368.69
2022-10-11T01:49:39.245Z,98364.84
2022-10-11T01:52:07.676Z,98367.16
2022-10-11T01:55:09.708Z,98364.84
2022-10-11T01:58:08.624Z,98358.25
2022-10-11T02:00:51.785Z,98356.69
2022-10-11T02:03:41.249Z,98356.28
2022-10-11T02:06:48.592Z,98362.50
2022-10-11T02:09:20.075Z,98362.50
2022-10-11T02:11:46.773Z,98360.97
2022-10-11T02:14:18.493Z,98357.13
2022-10-11T02:16:50.986Z,98358.69
2022-10-11T02:19:23.665Z,98372.28
2022-10-11T02:21:54.701Z,98367.66
2022-10-11T02:24:38.565Z,98361.09
2022-10-11T02:27:06.446Z,98362.66
2022-10-11T02:29:36.072Z,98357.63
2022-10-11T02:32:04.691Z,98361.53
2022-10-11T02:34:36.010Z,98354.16
2022-10-11T02:37:05.563Z,98351.81
2022-10-11T02:39:40.219Z,98354.91
2022-10-11T02:42:14.972Z,98353.78
2022-10-11T02:44:49.506Z,98352.63
2022-10-11T02:47:18.363Z,98352.63
2022-10-11T02:49:45.511Z,98343.69
2022-10-11T02:52:12.176Z,98337.88
2022-10-11T02:54:38.703Z,98350.31
2022-10-11T02:57:05.250Z,98349.16
2022-10-11T02:59:37.917Z,98347.59
2022-10-11T03:02:04.517Z,98349.91
2022-10-11T03:04:31.074Z,98346.81
2022-10-11T03:06:57.789Z,98348.72
2022-10-11T03:09:24.309Z,98344.09
2022-10-11T03:11:53.183Z,98349.09
2022-10-11T03:14:19.814Z,98351.06
2022-10-11T03:16:46.302Z,98348.72
2022-10-11T03:19:16.927Z,98345.63
2022-10-11T03:21:52.395Z,98351.00
2022-10-11T03:24:18.895Z,98354.09
2022-10-11T03:26:45.400Z,98351.38
2022-10-11T03:29:21.594Z,98356.00
2022-10-11T03:31:51.547Z,98357.56
2022-10-11T03:34:18.037Z,98353.28
2022-10-11T03:36:44.641Z,98360.66
2022-10-11T03:39:11.145Z,98360.25
2022-10-11T03:41:37.953Z,98355.59
2022-10-11T03:44:04.729Z,98363.34
2022-10-11T03:46:31.552Z,98363.69
2022-10-11T03:48:58.353Z,98359.41
2022-10-11T03:51:31.214Z,98358.63
2022-10-11T03:53:58.056Z,98360.16
2022-10-11T03:56:24.811Z,98357.03
2022-10-11T03:58:51.561Z,98353.91
2022-10-11T04:01:18.102Z,98366.28
2022-10-11T04:03:46.953Z,98353.84
2022-10-11T04:06:15.179Z,98353.84
2022-10-11T04:08:41.697Z,98357.38
2022-10-11T04:11:08.279Z,98361.56
2022-10-11T04:13:36.534Z,98351.09
2022-10-11T04:16:03.822Z,98362.69
2022-10-11T04:18:30.583Z,98357.22
2022-10-11T04:20:57.052Z,98361.06
2022-10-11T04:23:26.164Z,98362.19
2022-10-11T04:25:55.992Z,98356.69
2022-10-11T04:28:27.342Z,98358.59
2022-10-11T04:30:53.906Z,98364.00
2022-10-11T04:33:20.634Z,98367.47
2022-10-11T04:35:47.264Z,98376.38
2022-10-11T04:38:14.079Z,98369.78
2022-10-11T04:40:40.677Z,98379.47
2022-10-11T04:43:09.422Z,98370.97
2022-10-11T04:45:35.906Z,98374.03
2022-10-11T04:48:04.338Z,98376.75
2022-10-11T04:50:32.759Z,98379.91
2022-10-11T04:52:59.299Z,98379.91
2022-10-11T04:55:25.864Z,98384.16
2022-10-11T04:57:54.421Z,98389.94
2022-10-11T05:00:21.893Z,98384.16
2022-10-11T05:02:48.795Z,98386.84
2022-10-11T05:05:17.807Z,98390.75
2022-10-11T05:07:44.481Z,98396.16
2022-10-11T05:10:14.986Z,98396.16
2022-10-11T05:12:41.591Z,98396.16
2022-10-11T05:15:08.770Z,98403.94
2022-10-11T05:17:35.583Z,98403.94
2022-10-11T05:20:06.636Z,98396.56
2022-10-11T05:22:33.126Z,98400.84
2022-10-11T05:24:59.620Z,98402.78
2022-10-11T05:27:28.370Z,98400.84
2022-10-11T05:29:54.882Z,98395.03
2022-10-11T05:32:27.750Z,98397.81
2022-10-11T05:34:56.363Z,98396.66
2022-10-11T05:37:23.141Z,98402.88
2022-10-11T05:39:49.637Z,98405.97
2022-10-11T05:42:25.277Z,98400.19
2022-10-11T05:44:56.737Z,98405.22
2022-10-11T05:47:23.219Z,98404.09
2022-10-11T05:49:51.466Z,98413.00
2022-10-11T05:52:21.678Z,98407.19
2022-10-11T05:54:48.755Z,98411.09
2022-10-11T05:57:17.145Z,98412.31
2022-10-11T05:59:43.767Z,98422.00
2022-10-11T06:02:15.545Z,98421.22
2022-10-11T06:04:42.102Z,98426.31
2022-10-11T06:07:08.751Z,98416.25
2022-10-11T06:09:35.317Z,98422.13
2022-10-11T06:12:10.923Z,98431.03
2022-10-11T06:14:38.078Z,98436.88
2022-10-11T06:17:04.692Z,98438.84
2022-10-11T06:19:31.477Z,98439.63
2022-10-11T06:21:57.998Z,98447.75
2022-10-11T06:24:24.550Z,98451.59
2022-10-11T06:26:53.383Z,98455.44
2022-10-11T06:29:20.168Z,98443.75
2022-10-11T06:31:48.170Z,98456.16
2022-10-11T06:34:17.708Z,98458.13
2022-10-11T06:36:44.228Z,98455.88
2022-10-11T06:39:10.716Z,98461.34
2022-10-11T06:41:43.790Z,98454.81
2022-10-11T06:44:14.141Z,98464.94
2022-10-11T06:46:41.408Z,98459.50
2022-10-11T06:49:10.413Z,98459.88
2022-10-11T06:51:36.894Z,98464.19
2022-10-11T06:54:03.798Z,98466.56
2022-10-11T06:56:36.653Z,98463.88
2022-10-11T06:59:05.219Z,98471.00
2022-10-11T07:01:32.778Z,98474.94
2022-10-11T07:04:04.892Z,98465.72
2022-10-11T07:06:31.727Z,98474.34
2022-10-11T07:09:00.453Z,98477.91
2022-10-11T07:11:28.343Z,98486.19
2022-10-11T07:13:57.355Z,98486.69
2022-10-11T07:16:24.617Z,98481.31
2022-10-11T07:19:00.805Z,98484.56
2022-10-11T07:21:32.399Z,98484.72
2022-10-11T07:24:05.539Z,98475.78
2022-10-11T07:26:38.302Z,98482.56
2022-10-11T07:29:14.801Z,98488.09
2022-10-11T07:31:42.176Z,98484.41
2022-10-11T07:34:12.419Z,98483.59
2022-10-11T07:36:44.658Z,98488.84
2022-10-11T07:39:11.397Z,98481.69
2022-10-11T07:41:44.642Z,98486.78
2022-10-11T07:44:16.850Z,98484.94
2022-10-11T07:46:43.396Z,98486.31
2022-10-11T07:49:09.867Z,98493.63
2022-10-11T07:51:36.524Z,98496.59
2022-10-11T07:54:07.053Z,98498.63
2022-10-11T07:56:34.001Z,98508.94
2022-10-11T07:59:03.697Z,98498.88
2022-10-11T08:01:32.949Z,98497.31
2022-10-11T08:03:59.985Z,98504.44
2022-10-11T08:06:30.727Z,98501.25
2022-10-11T08:08:58.832Z,98502.78
2022-10-11T08:11:30.645Z,98508.28
2022-10-11T08:14:04.669Z,98510.31
2022-10-11T08:16:31.285Z,98508.81
2022-10-11T08:18:58.123Z,98510.00
2022-10-11T08:21:26.804Z,98507.63
2022-10-11T08:23:53.494Z,98504.09
2022-10-11T08:26:19.967Z,98510.72
2022-10-11T08:28:46.576Z,98516.19
2022-10-11T08:31:18.129Z,98515.81
2022-10-11T08:33:44.813Z,98521.72
2022-10-11T08:36:14.386Z,98513.50
2022-10-11T08:38:41.578Z,98514.28
2022-10-11T08:41:16.055Z,98516.22
2022-10-11T08:43:56.495Z,98510.34
2022-10-11T08:46:28.627Z,98502.50
2022-10-11T08:48:58.766Z,98507.16
2022-10-11T08:51:32.244Z,98512.94
2022-10-11T08:54:07.536Z,98517.19
2022-10-11T08:56:38.332Z,98512.88
2022-10-11T08:59:31.208Z,98506.53
2022-10-11T09:02:14.359Z,98502.47
2022-10-11T09:04:42.781Z,98503.75
2022-10-11T09:07:23.032Z,98512.72
2022-10-11T09:09:57.025Z,98501.03
2022-10-11T09:12:49.804Z,98505.19
2022-10-11T09:15:26.823Z,98509.94
2022-10-11T09:18:15.318Z,98506.06
2022-10-11T09:21:00.053Z,98509.53
2022-10-11T09:23:47.925Z,98515.56
2022-10-11T09:26:31.659Z,98514.19
2022-10-11T09:29:08.433Z,98518.59
2022-10-11T09:31:35.021Z,98514.97
2022-10-11T09:34:11.941Z,98514.53
2022-10-11T09:36:44.497Z,98507.75
2022-10-11T09:39:25.202Z,98507.75
2022-10-11T09:42:09.149Z,98509.44
2022-10-11T09:45:04.474Z,98518.66
2022-10-11T09:47:34.321Z,98508.59
2022-10-11T09:50:03.539Z,98517.75
2022-10-11T09:52:30.631Z,98508.09
2022-10-11T09:55:03.962Z,98512.22
2022-10-11T09:57:35.276Z,98514.69
2022-10-11T10:00:21.742Z,98518.84
2022-10-11T10:02:52.565Z,98515.31
2022-10-11T10:05:23.487Z,98510.94
2022-10-11T10:08:09.158Z,98514.84
2022-10-11T10:10:41.962Z,98503.63
2022-10-11T10:13:42.519Z,98497.50
2022-10-11T10:16:37.379Z,98502.63
2022-10-11T10:19:18.600Z,98496.75
2022-10-11T10:21:48.974Z,98497.38
2022-10-11T10:24:35.506Z,98497.97
2022-10-11T10:27:14.321Z,98492.66
2022-10-11T10:29:41.897Z,98490.22
2022-10-11T10:32:23.632Z,98485.72
2022-10-11T10:35:08.498Z,98486.97
2022-10-11T10:37:50.259Z,98492.44
2022-10-11T10:40:35.758Z,98486.72
2022-10-11T10:43:02.389Z,98483.22
2022-10-11T10:45:41.778Z,98486.78
2022-10-11T10:49:18.832Z,98473.06
2022-10-11T10:51:39.612Z,98475.56
2022-10-11T10:54:33.766Z,98468.66
2022-10-11T10:57:04.518Z,98470.72
2022-10-11T11:00:03.551Z,98472.13
2022-10-11T11:03:02.516Z,98474.31
2022-10-11T11:05:58.489Z,98461.56
2022-10-11T11:09:05.457Z,98460.63
2022-10-11T11:11:54.044Z,98461.56
2022-10-11T11:14:41.717Z,98464.16
2022-10-11T11:17:18.190Z,98459.88
2022-10-11T11:20:13.590Z,98457.94
2022-10-11T11:22:47.754Z,98455.44
2022-10-11T11:25:40.266Z,98448.88
2022-10-11T11:28:33.930Z,98453.28
2022-10-11T11:31:23.432Z,98449.59
2022-10-11T11:34:30.681Z,98443.13
2022-10-11T11:37:10.835Z,98431.53
2022-10-11T11:39:53.152Z,98431.91
2022-10-11T11:42:22.441Z,98424.50
2022-10-11T11:44:52.110Z,98431.06
2022-10-11T11:47:29.454Z,98423.13
2022-10-11T11:50:02.220Z,98428.84
2022-10-11T11:52:46.576Z,98430.94
2022-10-11T11:55:37.127Z,98426.34
2022-10-11T11:58:31.656Z,98419.53
2022-10-11T12:01:18.242Z,98420.31
2022-10-11T12:03:49.800Z,98411.78
2022-10-11T12:06:17.929Z,98416.72
2022-10-11T12:08:48.563Z,98413.75
2022-10-11T12:11:44.601Z,98415.53
2022-10-11T12:14:29.811Z,98403.34
2022-10-11T12:17:10.545Z,98419.41
2022-10-11T12:19:38.752Z,98413.03
2022-10-11T12:22:26.891Z,98411.13
2022-10-11T12:24:58.515Z,98413.63
2022-10-11T12:27:45.682Z,98416.53
2022-10-11T12:30:50.920Z,98405.47
2022-10-11T12:33:31.129Z,98412.28
2022-10-11T12:36:23.209Z,98408.56
2022-10-11T12:39:24.929Z,98410.31
2022-10-11T12:42:07.478Z,98417.00
2022-10-11T12:44:44.315Z,98414.47
2022-10-11T12:47:41.643Z,98410.59
2022-10-11T12:50:32.511Z,98418.41
2022-10-11T12:53:31.500Z,98410.38
2022-10-11T12:56:14.441Z,98410.22
2022-10-11T12:58:46.670Z,98404.00
2022-10-11T13:01:22.783Z,98403.28
2022-10-11T13:04:23.090Z,98407.97
2022-10-11T13:07:06.440Z,98414.03
2022-10-11T13:09:46.616Z,98416.44
2022-10-11T13:12:19.732Z,98407.19
2022-10-11T13:14:54.367Z,98407.00
2022-10-11T13:17:26.135Z,98410.41
2022-10-11T13:20:20.734Z,98402.84
2022-10-11T13:22:53.005Z,98407.94
2022-10-11T13:25:28.405Z,98409.44
2022-10-11T13:28:01.524Z,98409.56
2022-10-11T13:30:42.364Z,98407.34
2022-10-11T13:33:26.623Z,98410.63
2022-10-11T13:35:53.635Z,98396.94
2022-10-11T13:38:25.825Z,98398.38
2022-10-11T13:40:52.790Z,98397.19
2022-10-11T13:43:22.940Z,98399.50
2022-10-11T13:45:49.500Z,98402.38
2022-10-11T13:48:16.908Z,98396.72
2022-10-11T13:50:51.175Z,98395.75
2022-10-11T13:53:17.632Z,98403.59
2022-10-11T13:55:59.245Z,98396.25
2022-10-11T13:58:33.653Z,98395.13
2022-10-11T14:01:04.673Z,98395.13
2022-10-11T14:03:58.811Z,98395.84
2022-10-11T14:07:01.107Z,98395.06
2022-10-11T14:09:33.143Z,98393.47
2022-10-11T14:12:30.707Z,98381.84
2022-10-11T14:14:58.815Z,98400.59
2022-10-11T14:17:39.998Z,98390.41
2022-10-11T14:20:23.143Z,98392.41
2022-10-11T14:22:53.761Z,98403.69
2022-10-11T14:25:25.291Z,98396.09
2022-10-11T14:27:52.031Z,98396.53
2022-10-11T14:30:26.532Z,98393.88
2022-10-11T14:32:56.224Z,98401.19
2022-10-11T14:35:26.736Z,98398.59
2022-10-11T14:37:53.987Z,98402.19
2022-10-11T14:40:24.082Z,98395.56
2022-10-11T14:42:53.323Z,98396.44
2022-10-11T14:45:21.302Z,98394.88
2022-10-11T14:47:50.360Z,98386.31
2022-10-11T14:50:27.637Z,98392.50
2022-10-11T14:52:56.674Z,98397.31
2022-10-11T14:55:23.749Z,98399.31
2022-10-11T14:57:50.338Z,98398.97
2022-10-11T15:00:29.715Z,98400.19
2022-10-11T15:02:57.054Z,98394.47
2022-10-11T15:05:29.823Z,98400.72
2022-10-11T15:07:59.714Z,98400.34
2022-10-11T15:10:30.122Z,98389.09
2022-10-11T15:12:58.755Z,98393.03
2022-10-11T15:15:27.163Z,98398.50
2022-10-11T15:17:56.301Z,98384.44
2022-10-11T15:20:41.192Z,98383.25
2022-10-11T15:23:09.931Z,98390.34
2022-10-11T15:25:37.861Z,98389.22
2022-10-11T15:28:09.805Z,98388.50
2022-10-11T15:30:41.454Z,98387.88
2022-10-11T15:33:08.729Z,98387.91
2022-10-11T15:35:37.105Z,98396.91
2022-10-11T15:38:03.983Z,98393.13
2022-10-11T15:40:35.801Z,98392.78
2022-10-11T15:43:05.355Z,98388.13
2022-10-11T15:45:31.952Z,98389.78
2022-10-11T15:47:59.201Z,98395.31
2022-10-11T15:50:34.941Z,98396.50
2022-10-11T15:53:01.546Z,98387.16
2022-10-11T15:55:28.892Z,98393.44
2022-10-11T15:57:55.754Z,98382.91
2022-10-11T16:00:22.552Z,98389.13
2022-10-11T16:02:51.920Z,98393.06
2022-10-11T16:05:33.512Z,98391.13
2022-10-11T16:08:04.321Z,98399.75
2022-10-11T16:10:30.875Z,98393.94
2022-10-11T16:12:59.173Z,98389.66
2022-10-11T16:15:29.317Z,98391.63
2022-10-11T16:17:55.885Z,98394.38
2022-10-11T16:20:25.850Z,98389.31
2022-10-11T16:22:54.262Z,98394.41
2022-10-11T16:25:22.200Z,98396.38
2022-10-11T16:27:55.580Z,98404.94
2022-10-11T16:30:22.268Z,98408.09
2022-10-11T16:32:48.874Z,98408.47
2022-10-11T16:35:18.416Z,98400.31
2022-10-11T16:37:50.553Z,98409.25
2022-10-11T16:40:21.436Z,98412.75
2022-10-11T16:42:48.432Z,98417.03
2022-10-11T16:45:16.018Z,98417.03
2022-10-11T16:47:45.495Z,98418.22
2022-10-11T16:50:12.771Z,98423.25
2022-10-11T16:52:39.508Z,98432.22
2022-10-11T16:55:06.686Z,98426.34
2022-10-11T16:57:33.192Z,98426.75
2022-10-11T16:59:59.714Z,98424.41
2022-10-11T17:02:32.272Z,98431.03
2022-10-11T17:05:02.650Z,98432.97
2022-10-11T17:07:29.285Z,98427.50
2022-10-11T17:09:56.281Z,98433.75
2022-10-11T17:12:24.488Z,98435.31
2022-10-11T17:14:51.570Z,98437.63
2022-10-11T17:17:22.170Z,98441.53
2022-10-11T17:19:48.947Z,98443.06
2022-10-11T17:22:18.722Z,98450.88
2022-10-11T17:24:46.045Z,98452.03
2022-10-11T17:27:13.579Z,98451.66
2022-10-11T17:29:40.656Z,98454.75
2022-10-11T17:32:07.376Z,98451.63
2022-10-11T17:34:34.389Z,98455.91
2022-10-11T17:37:00.874Z,98446.19
2022-10-11T17:39:34.040Z,98448.50
2022-10-11T17:42:05.041Z,98450.06
2022-10-11T17:44:37.391Z,98450.06
2022-10-11T17:47:04.289Z,98447.31
2022-10-11T17:49:30.848Z,98451.19
2022-10-11T17:51:59.819Z,98455.84
2022-10-11T17:54:26.537Z,98452.34
2022-10-11T17:56:54.520Z,98452.31
2022-10-11T17:59:23.591Z,98459.31
2022-10-11T18:04:42.028Z,98449.94
2022-10-11T18:07:08.535Z,98445.63
2022-10-11T18:09:35.092Z,98447.59
2022-10-11T18:12:02.000Z,98451.03
2022-10-11T18:14:28.526Z,98446.75
2022-10-11T18:16:55.216Z,98447.50
2022-10-11T18:19:21.856Z,98446.28
2022-10-11T18:21:48.346Z,98442.00
2022-10-11T18:24:16.564Z,98439.22
2022-10-11T18:26:45.080Z,98441.88
2022-10-11T18:29:13.775Z,98445.34
2022-10-11T18:31:41.157Z,98448.03
2022-10-11T18:34:10.963Z,98443.69
2022-10-11T18:36:37.952Z,98444.44
2022-10-11T18:39:07.306Z,98444.78
2022-10-11T18:41:45.768Z,98442.41
2022-10-11T18:44:15.613Z,98443.16
2022-10-11T18:46:42.721Z,98443.16
2022-10-11T18:49:09.336Z,98449.69
2022-10-11T18:51:39.589Z,98451.59
2022-10-11T18:54:08.086Z,98450.78
2022-10-11T18:56:38.742Z,98454.66
2022-10-11T18:59:07.745Z,98465.84
2022-10-11T19:01:38.334Z,98459.97
2022-10-11T19:04:06.884Z,98462.28
2022-10-11T19:06:43.018Z,98469.22
2022-10-11T19:09:23.567Z,98464.13
2022-10-11T19:11:53.828Z,98463.69
2022-10-11T19:14:22.596Z,98457.41
2022-10-11T19:16:51.692Z,98458.16
2022-10-11T19:19:23.967Z,98457.31
2022-10-11T19:21:50.751Z,98462.72
2022-10-11T19:24:19.393Z,98456.94
2022-10-11T19:26:46.992Z,98453.81
2022-10-11T19:29:18.700Z,98461.91
2022-10-11T19:31:54.131Z,98450.66
2022-10-11T19:34:22.282Z,98451.75
2022-10-11T19:36:53.404Z,98454.44
2022-10-11T19:39:23.373Z,98450.91
2022-10-11T19:41:53.885Z,98445.78
2022-10-11T19:44:20.616Z,98444.50
2022-10-11T19:46:51.971Z,98450.28
2022-10-11T19:49:22.478Z,98457.66
2022-10-11T19:51:49.159Z,98451.81
2022-10-11T19:54:19.942Z,98451.41
2022-10-11T19:56:46.803Z,98461.44
2022-10-11T19:59:14.745Z,98462.50
2022-10-11T20:01:42.079Z,98467.44
2022-10-11T20:04:22.930Z,98463.97
2022-10-11T20:07:00.120Z,98467.41
2022-10-11T20:09:30.782Z,98457.66
2022-10-11T20:11:57.931Z,98464.59
2022-10-11T20:14:24.820Z,98464.97
2022-10-11T20:16:51.542Z,98456.38
2022-10-11T20:19:18.608Z,98468.69
2022-10-11T20:21:45.597Z,98470.94
2022-10-11T20:24:15.599Z,98475.44
2022-10-11T20:26:42.082Z,98471.19
2022-10-11T20:29:08.705Z,98471.03
2022-10-11T20:31:38.849Z,98469.34
2022-10-11T20:34:07.506Z,98473.22
2022-10-11T20:36:40.212Z,98468.16
2022-10-11T20:39:06.797Z,98461.19
2022-10-11T20:41:44.534Z,98469.72
2022-10-11T20:44:13.145Z,98467.81
2022-10-11T20:46:40.036Z,98469.25
2022-10-11T20:49:09.091Z,98456.78
2022-10-11T20:51:37.700Z,98468.38
2022-10-11T20:54:04.812Z,98466.38
2022-10-11T20:56:34.320Z,98470.97
2022-10-11T20:59:05.204Z,98475.94
2022-10-11T21:01:38.005Z,98470.03
2022-10-11T21:04:06.625Z,98470.78
2022-10-11T21:06:33.753Z,98476.13
2022-10-11T21:09:03.282Z,98483.91
2022-10-11T21:11:33.534Z,98485.41
2022-10-11T21:14:02.532Z,98484.97
2022-10-11T21:16:29.711Z,98477.66
2022-10-11T21:18:57.988Z,98492.25
2022-10-11T21:21:25.274Z,98485.66
2022-10-11T21:24:06.500Z,98484.94
2022-10-11T21:26:35.204Z,98482.25
2022-10-11T21:29:04.216Z,98483.06
2022-10-11T21:31:34.532Z,98481.53
2022-10-11T21:34:02.294Z,98481.97
2022-10-11T21:36:28.914Z,98483.97
2022-10-11T21:38:56.288Z,98479.31
2022-10-11T21:41:25.887Z,98475.47
2022-10-11T21:43:52.716Z,98478.59
2022-10-11T21:46:32.577Z,98479.75
2022-10-11T21:49:08.639Z,98476.69
2022-10-11T21:51:37.470Z,98468.53
2022-10-11T21:54:07.698Z,98473.25
2022-10-11T21:56:36.007Z,98477.94
2022-10-11T21:59:05.460Z,98478.75
2022-10-11T22:01:36.752Z,98476.50
2022-10-11T22:04:12.083Z,98475.75
2022-10-11T22:06:38.865Z,98474.28
2022-10-11T22:09:07.162Z,98469.69
2022-10-11T22:11:36.284Z,98477.84
2022-10-11T22:14:03.544Z,98473.22
2022-10-11T22:16:30.061Z,98475.22
2022-10-11T22:18:56.702Z,98472.91
2022-10-11T22:21:23.793Z,98468.31
2022-10-11T22:23:52.098Z,98470.66
2022-10-11T22:26:26.478Z,98461.81
2022-10-11T22:28:53.508Z,98460.34
2022-10-11T22:31:21.442Z,98458.41
2022-10-11T22:33:50.578Z,98449.19
2022-10-11T22:36:18.945Z,98450.38
2022-10-11T22:38:45.572Z,98442.72
2022-10-11T22:41:17.075Z,98452.47
2022-10-11T22:43:43.717Z,98449.81
2022-10-11T22:46:10.428Z,98446.72
2022-10-11T22:48:38.750Z,98450.22
2022-10-11T22:51:05.455Z,98443.25
2022-10-11T22:53:32.002Z,98447.09
2022-10-11T22:55:59.021Z,98452.50
2022-10-11T22:58:25.891Z,98453.25
2022-10-11T23:00:52.760Z,98443.16
2022-10-11T23:03:21.509Z,98450.47
2022-10-11T23:05:58.790Z,98450.09
2022-10-11T23:08:27.415Z,98446.22
2022-10-11T23:10:54.009Z,98445.41
2022-10-11T23:13:20.597Z,98448.56
2022-10-11T23:15:47.244Z,98453.63
2022-10-11T23:18:16.311Z,98459.78
2022-10-11T23:20:42.778Z,98450.47
2022-10-11T23:23:09.470Z,98454.75
2022-10-11T23:25:35.943Z,98454.38
2022-10-11T23:28:02.447Z,98457.91
2022-10-11T23:30:31.521Z,98453.25
2022-10-11T23:32:59.770Z,98452.88
2022-10-11T23:35:26.312Z,98458.31
2022-10-11T23:37:56.574Z,98456.72
2022-10-11T23:40:23.159Z,98456.34
2022-10-11T23:42:49.639Z,98468.69
2022-10-11T23:45:20.679Z,98466.38
2022-10-11T23:47:47.157Z,98454.75
2022-10-11T23:50:13.647Z,98467.19
2022-10-11T23:52:42.403Z,98466.03
2022-10-11T23:55:11.007Z,98456.34
2022-10-11T23:57:37.808Z,98460.56
